Time;durP1;ratioP1;P1;durP2;ratioP2;P2;SDS_P1;SDS_P2;PMS_P1;PMS_P2;Temp;Humidity;BMP_temperature;BMP_pressure;BME280_temperature;BME280_humidity;BME280_pressure;Samples;Min_cycle;Max_cycle;Signal;HPM_P1;HPM_P2
2022/06/20 00:02:51;;;;;;;8.70;6.75;;;;;;;23.23;74.73;99559.14;2711294;85;21018;-59
2022/06/20 00:06:52;;;;;;;10.68;6.62;;;;;;;23.20;75.22;99556.38;2704224;86;21026;-60
2022/06/20 00:10:53;;;;;;;13.55;6.10;;;;;;;23.14;75.06;99554.55;2721722;85;21040;-61
2022/06/20 00:14:58;;;;;;;13.80;7.08;;;;;;;23.11;75.44;99561.78;2794254;85;20978;-59
2022/06/20 00:19:06;;;;;;;7.97;5.80;;;;;;;23.12;75.25;99563.44;2724044;86;21256;-59
2022/06/20 00:23:09;;;;;;;15.08;7.10;;;;;;;23.10;75.05;99556.06;2658873;88;21996;-60
2022/06/20 00:27:10;;;;;;;10.05;6.80;;;;;;;22.92;76.76;99560.42;2679918;87;20995;-60
2022/06/20 00:31:13;;;;;;;15.53;7.60;;;;;;;22.74;77.00;99546.85;2702343;86;21075;-59
2022/06/20 00:35:16;;;;;;;18.37;6.80;;;;;;;22.67;77.88;99553.18;2704267;86;21016;-59
2022/06/20 00:39:21;;;;;;;12.78;6.95;;;;;;;22.70;77.83;99542.94;2693633;87;21032;-61
2022/06/20 00:43:39;;;;;;;12.50;7.03;;;;;;;22.75;77.68;99536.31;2793190;84;21048;-61
2022/06/20 00:47:42;;;;;;;13.22;7.05;;;;;;;22.69;77.60;99538.03;2817865;83;21061;-59
2022/06/20 00:52:19;;;;;;;11.22;6.72;;;;;;;22.61;78.50;99547.31;2803078;83;20960;-59
2022/06/20 00:56:25;;;;;;;14.55;7.37;;;;;;;22.45;79.45;99541.07;2801782;83;20979;-60
2022/06/20 01:00:31;;;;;;;14.00;7.22;;;;;;;22.36;79.43;99553.52;2777793;84;21017;-60
2022/06/20 01:05:00;;;;;;;16.75;8.33;;;;;;;21.95;83.75;99571.12;2809811;84;20994;-60
2022/06/20 01:09:08;;;;;;;8.38;6.92;;;;;;;21.64;85.61;99574.92;2791665;84;20974;-61
2022/06/20 01:13:15;;;;;;;19.02;7.95;;;;;;;21.52;86.94;99580.19;2707894;86;21076;-61
2022/06/20 01:17:37;;;;;;;14.45;6.67;;;;;;;21.46;87.31;99583.77;2678269;88;21013;-60
2022/06/20 01:21:38;;;;;;;11.68;6.33;;;;;;;21.41;87.80;99591.67;2738020;83;21059;-60
2022/06/20 01:26:19;;;;;;;15.05;7.15;;;;;;;21.35;88.03;99587.13;2719560;86;21005;-59
2022/06/20 01:30:25;;;;;;;16.73;8.18;;;;;;;21.28;88.85;99583.63;2732009;87;21026;-59
2022/06/20 01:34:27;;;;;;;8.55;6.08;;;;;;;21.16;89.37;99592.93;2732009;87;21022;-59
2022/06/20 01:38:31;;;;;;;13.05;5.92;;;;;;;21.08;89.34;99585.88;2751857;86;21057;-62
2022/06/20 01:42:34;;;;;;;13.05;7.42;;;;;;;21.02;89.59;99590.76;2686964;86;21042;-59
2022/06/20 01:46:36;;;;;;;16.57;6.45;;;;;;;20.99;89.76;99593.38;2736568;85;21066;-59
2022/06/20 01:50:42;;;;;;;9.65;6.60;;;;;;;20.91;90.02;99602.55;2716723;85;21059;-60
2022/06/20 01:54:48;;;;;;;13.62;5.65;;;;;;;20.87;90.40;99606.72;2712614;87;21077;-59
2022/06/20 01:59:05;;;;;;;28.83;7.55;;;;;;;20.86;89.89;99617.22;2676824;88;21041;-59
2022/06/20 02:03:12;;;;;;;12.30;6.62;;;;;;;20.89;89.52;99633.02;2764146;84;21047;-59
2022/06/20 02:07:15;;;;;;;11.18;7.30;;;;;;;20.89;89.24;99631.66;2797550;84;21013;-60
2022/06/20 02:11:35;;;;;;;13.80;6.37;;;;;;;20.86;89.76;99647.45;2777527;85;21009;-59
2022/06/20 02:15:37;;;;;;;12.45;8.20;;;;;;;20.80;90.47;99654.02;2786070;85;21051;-60
2022/06/20 02:19:44;;;;;;;12.58;8.23;;;;;;;20.71;91.16;99666.03;2754689;85;21003;-59
2022/06/20 02:23:51;;;;;;;15.15;7.87;;;;;;;20.61;91.94;99680.48;2790126;85;21087;-59
2022/06/20 02:28:01;;;;;;;12.70;8.98;;;;;;;20.47;92.87;99672.90;2777309;85;21007;-59
2022/06/20 02:32:22;;;;;;;16.10;9.93;;;;;;;20.36;93.88;99677.85;2785975;84;21119;-59
2022/06/20 02:36:24;;;;;;;18.23;10.03;;;;;;;20.30;94.42;99673.28;2809099;84;21071;-61
2022/06/20 02:40:34;;;;;;;17.20;11.43;;;;;;;20.28;94.45;99664.56;2777502;84;21015;-60
2022/06/20 02:44:37;;;;;;;16.30;8.70;;;;;;;20.26;94.44;99663.94;2831462;84;21059;-59
2022/06/20 02:48:42;;;;;;;21.42;9.28;;;;;;;20.24;94.91;99652.48;2782305;84;20944;-59
2022/06/20 02:52:58;;;;;;;21.70;10.55;;;;;;;20.21;95.37;99644.80;2778322;84;21055;-58
2022/06/20 02:57:03;;;;;;;;;;;;;;;20.18;95.54;99656.01;2713776;88;21019;-59
2022/06/20 03:01:18;;;;;;;13.48;8.63;;;;;;;20.14;95.67;99643.42;2707685;87;20079;-59
2022/06/20 03:05:20;;;;;;;12.58;9.28;;;;;;;20.12;95.05;99653.59;2700216;88;21008;-58
2022/06/20 03:09:31;;;;;;;20.17;8.38;;;;;;;20.15;94.70;99655.92;2709501;86;21049;-59
2022/06/20 03:13:34;;;;;;;13.75;8.33;;;;;;;20.20;94.20;99644.48;2661240;88;21071;-59
2022/06/20 03:17:36;;;;;;;9.28;7.53;;;;;;;20.19;94.00;99636.92;2706542;87;21003;-59
2022/06/20 03:21:54;;;;;;;12.65;7.20;;;;;;;20.21;93.46;99618.64;2719496;86;21031;-59
2022/06/20 03:25:59;;;;;;;8.95;6.50;;;;;;;20.33;93.17;99612.10;2733976;86;20996;-60
2022/06/20 03:30:07;;;;;;;8.20;6.03;;;;;;;20.45;92.26;99600.70;2758697;86;21042;-60
2022/06/20 03:34:10;;;;;;;9.93;6.12;;;;;;;20.53;91.63;99598.59;2688565;86;21090;-59
2022/06/20 03:38:14;;;;;;;12.68;6.95;;;;;;;20.67;90.94;99605.34;2708050;88;21055;-59
2022/06/20 03:42:16;;;;;;;8.90;6.47;;;;;;;20.78;90.74;99592.56;2689472;88;20989;-60
2022/06/20 03:46:41;;;;;;;10.50;6.12;;;;;;;20.94;90.31;99587.25;2648647;88;21012;-60
2022/06/20 03:51:03;;;;;;;9.80;6.75;;;;;;;21.09;89.45;99578.07;2692115;86;21059;-60
2022/06/20 03:55:09;;;;;;;11.88;6.80;;;;;;;21.18;88.55;99583.55;2733789;85;21027;-60
2022/06/20 03:59:33;;;;;;;8.45;6.30;;;;;;;21.28;88.32;99598.50;2734143;82;21107;-59
2022/06/20 04:03:51;;;;;;;6.10;5.25;;;;;;;21.37;87.73;99615.64;2737887;86;21035;-60
2022/06/20 04:08:07;;;;;;;8.35;5.58;;;;;;;21.46;87.53;99616.23;2691860;88;21079;-59
2022/06/20 04:12:11;;;;;;;;;;;;;;;21.47;87.90;99618.39;2697997;88;21012;-59
2022/06/20 04:16:36;;;;;;;7.80;5.40;;;;;;;21.51;88.06;99619.12;2705637;86;20244;-60
2022/06/20 04:20:54;;;;;;;8.18;6.33;;;;;;;21.57;88.09;99613.88;2733054;85;20996;-60
2022/06/20 04:25:07;;;;;;;23.15;6.72;;;;;;;21.59;87.71;99615.84;2667217;87;21071;-60
2022/06/20 04:29:29;;;;;;;16.85;6.55;;;;;;;21.76;87.62;99623.81;2656224;88;21028;-60
2022/06/20 04:33:57;;;;;;;8.03;6.33;;;;;;;21.94;86.99;99618.20;2736224;85;21076;-60
2022/06/20 04:42:19;;;;;;;13.15;7.78;;;;;;;22.01;85.82;99605.48;2720985;84;21089;-85
2022/06/20 04:46:25;;;;;;;8.38;6.20;;;;;;;21.93;85.97;99639.56;2728696;85;21603;-86
2022/06/20 04:50:30;;;;;;;21.65;7.92;;;;;;;22.07;86.21;99607.30;2740594;84;21066;-86
2022/06/20 04:54:31;;;;;;;8.58;7.70;;;;;;;22.33;84.60;99642.02;2733338;85;21110;-85
2022/06/20 04:58:37;;;;;;;13.32;7.72;;;;;;;22.40;83.40;99623.01;2730671;84;21050;-86
2022/06/20 05:02:40;;;;;;;8.55;7.40;;;;;;;22.50;82.71;99613.91;2739465;84;21039;-86
2022/06/20 05:06:42;;;;;;;10.45;6.90;;;;;;;22.50;82.44;99634.73;2702393;86;21130;-86
2022/06/20 05:11:10;;;;;;;6.75;6.00;;;;;;;22.38;82.72;99620.50;2725859;85;21098;-86
2022/06/20 05:15:26;;;;;;;10.53;6.33;;;;;;;22.46;82.73;99599.63;2730599;84;21121;-86
2022/06/20 05:19:38;;;;;;;10.53;7.65;;;;;;;23.13;83.35;99599.00;2749279;84;21078;-86
2022/06/20 05:23:48;;;;;;;8.53;6.72;;;;;;;23.49;80.38;99591.93;2717312;86;21105;-86
2022/06/20 05:27:57;;;;;;;13.35;7.80;;;;;;;23.69;78.06;99584.05;2756759;84;21082;-85
2022/06/20 05:32:03;;;;;;;8.38;7.45;;;;;;;23.84;77.11;99578.74;2764844;84;21034;-86
2022/06/20 05:36:25;;;;;;;14.63;8.38;;;;;;;23.87;76.36;99572.30;2716174;85;21585;-86
2022/06/20 05:40:36;;;;;;;11.38;7.35;;;;;;;24.04;76.34;99564.36;2752035;80;21569;-86
2022/06/20 05:44:37;;;;;;;13.43;8.43;;;;;;;24.39;75.83;99563.59;2754357;84;21053;-86
2022/06/20 05:48:52;;;;;;;12.20;8.60;;;;;;;24.31;74.71;99564.47;2752814;83;21050;-86
2022/06/20 05:52:55;;;;;;;11.57;7.70;;;;;;;24.18;75.60;99556.02;2752616;84;21597;-89
2022/06/20 05:57:04;;;;;;;9.58;7.20;;;;;;;24.18;75.84;99545.15;2723558;85;21067;-89
2022/06/20 06:01:10;;;;;;;8.68;7.78;;;;;;;24.46;75.24;99527.31;2741034;85;21086;-85
2022/06/20 06:05:34;;;;;;;11.48;7.87;;;;;;;24.69;74.20;99503.38;2706920;85;21107;-86
2022/06/20 06:09:56;;;;;;;10.13;7.90;;;;;;;24.71;74.18;99491.72;2752844;84;21110;-87
2022/06/20 06:14:06;;;;;;;9.50;7.10;;;;;;;24.78;74.88;99484.83;2751870;84;21046;-85
2022/06/20 06:18:12;;;;;;;14.17;11.10;;;;;;;25.18;74.21;99466.31;2744754;83;28917;-87
2022/06/20 06:22:24;;;;;;;12.60;7.70;;;;;;;25.51;73.00;99467.47;2715879;84;21647;-87
2022/06/20 06:26:26;;;;;;;13.90;8.10;;;;;;;25.92;70.49;99463.79;2765544;84;21616;-87
2022/06/20 06:30:44;;;;;;;24.30;22.07;;;;;;;26.12;69.43;99455.64;2774827;83;21161;-86
2022/06/20 06:34:54;;;;;;;15.83;12.33;;;;;;;26.46;69.08;99441.47;2754239;84;21173;-88
2022/06/20 06:39:21;;;;;;;12.50;7.53;;;;;;;26.75;67.88;99424.91;2764621;84;21035;-89
2022/06/20 06:43:37;;;;;;;15.93;8.93;;;;;;;26.62;68.24;99412.48;2750597;85;21070;-85
2022/06/20 06:47:45;;;;;;;16.67;10.03;;;;;;;26.82;68.66;99411.09;2721517;85;21075;-87
2022/06/20 06:52:01;;;;;;;28.50;13.58;;;;;;;27.08;67.77;99393.64;2712834;86;21065;-86
2022/06/20 06:56:17;;;;;;;18.75;10.15;;;;;;;27.45;67.19;99394.83;2712033;86;21101;-88
2022/06/20 07:00:29;;;;;;;11.85;9.38;;;;;;;27.70;65.18;99379.19;2736411;84;21011;-86
2022/06/20 07:04:53;;;;;;;14.95;11.00;;;;;;;27.94;65.18;99372.00;2751503;80;21582;-93
2022/06/20 07:08:56;;;;;;;13.30;8.58;;;;;;;28.17;64.02;99365.30;2802801;83;21012;-88
2022/06/20 07:13:02;;;;;;;9.30;7.20;;;;;;;28.22;63.68;99350.31;2781786;83;21021;-90
2022/06/20 07:17:18;;;;;;;12.80;8.55;;;;;;;28.25;63.97;99346.77;2808415;83;21056;-92
2022/06/20 07:21:23;;;;;;;11.05;6.35;;;;;;;28.45;62.80;99352.31;2737450;84;21154;-94
2022/06/20 07:25:35;;;;;;;12.18;8.40;;;;;;;28.53;63.00;99338.67;2798141;83;21039;-93
2022/06/20 07:29:52;;;;;;;13.13;7.75;;;;;;;28.85;62.98;99336.30;2807317;83;21032;-91
2022/06/20 07:34:12;;;;;;;17.27;7.83;;;;;;;29.21;61.40;99312.27;2806148;83;21001;-92
2022/06/20 07:42:42;;;;;;;13.20;8.80;;;;;;;29.16;61.59;99313.08;2648254;85;21074;-59
2022/06/20 07:46:56;;;;;;;13.83;7.95;;;;;;;28.63;62.02;99303.12;2650795;89;21073;-60
2022/06/20 07:51:24;;;;;;;9.75;7.75;;;;;;;28.21;62.38;99295.36;2701378;87;21055;-60
2022/06/20 07:55:29;;;;;;;15.48;8.13;;;;;;;27.92;63.79;99317.59;2571121;90;21068;-60
2022/06/20 07:59:51;;;;;;;20.00;7.60;;;;;;;27.49;64.59;99342.14;2559637;90;21025;-60
2022/06/20 08:04:00;;;;;;;8.88;7.12;;;;;;;26.97;65.69;99316.88;2556555;91;21070;-61
2022/06/20 08:08:32;;;;;;;9.05;6.80;;;;;;;26.70;66.67;99304.85;2549990;92;21126;-60
2022/06/20 08:12:55;;;;;;;7.58;6.47;;;;;;;26.57;67.67;99321.61;2528898;92;21131;-60
2022/06/20 08:17:04;;;;;;;14.23;7.72;;;;;;;26.43;69.34;99341.63;2588932;90;21066;-60
2022/06/20 08:21:14;;;;;;;18.42;7.55;;;;;;;26.36;68.81;99370.44;2580518;91;21027;-60
2022/06/20 08:25:42;;;;;;;12.78;6.55;;;;;;;26.28;70.50;99461.65;2564996;91;21039;-60
2022/06/20 08:29:56;;;;;;;8.78;7.67;;;;;;;26.12;70.55;99478.81;2593644;89;21030;-60
2022/06/20 08:34:09;;;;;;;8.93;7.28;;;;;;;26.08;69.52;99395.40;2670160;88;21091;-60
2022/06/20 08:38:22;;;;;;;14.25;8.78;;;;;;;26.12;69.66;99389.73;2669104;88;21015;-60
2022/06/20 08:42:50;;;;;;;13.50;7.85;;;;;;;26.10;74.12;99408.23;2680634;87;21042;-61
2022/06/20 08:47:32;;;;;;;9.90;8.65;;;;;;;25.95;76.06;99423.82;2642818;88;21047;-61
2022/06/20 08:52:33;;;;;;;13.43;10.32;;;;;;;26.02;74.82;99365.05;2657059;88;21306;-60
2022/06/20 08:57:03;;;;;;;10.40;8.65;;;;;;;26.06;76.42;99346.59;2619371;89;21046;-60
2022/06/20 09:01:19;;;;;;;10.40;7.55;;;;;;;26.33;78.00;99309.63;2663419;88;21050;-59
2022/06/20 09:05:32;;;;;;;15.35;11.28;;;;;;;26.41;76.56;99317.89;2616998;88;21110;-60
2022/06/20 09:09:58;;;;;;;23.40;12.37;;;;;;;26.28;73.93;99322.64;2628951;89;21080;-61
2022/06/20 09:19:22;;;;;;;22.90;10.05;;;;;;;26.55;71.86;99356.49;2652608;86;21017;-61
2022/06/20 09:23:36;;;;;;;16.23;11.90;;;;;;;26.25;71.71;99405.47;2723207;87;21070;-60
2022/06/20 09:28:04;;;;;;;22.15;12.15;;;;;;;25.79;71.27;99469.88;2728375;86;20980;-60
2022/06/20 09:32:41;;;;;;;21.97;13.35;;;;;;;25.27;71.97;99497.21;2680872;87;21066;-61
2022/06/20 09:42:19;;;;;;;16.87;14.78;;;;;;;24.31;74.77;99491.11;2607447;90;21116;-61
2022/06/20 09:46:56;;;;;;;20.48;13.50;;;;;;;23.86;75.79;99497.87;2656846;87;21060;-61
2022/06/20 09:51:48;;;;;;;18.60;12.90;;;;;;;23.45;76.71;99497.11;2618850;89;21018;-61
2022/06/20 09:56:33;;;;;;;16.32;14.60;;;;;;;22.97;78.00;99485.19;2747810;84;21119;-92
2022/06/20 10:01:09;;;;;;;22.67;16.32;;;;;;;22.37;79.25;99494.22;2744950;85;21136;-92
2022/06/20 10:06:08;;;;;;;16.32;13.60;;;;;;;21.94;81.30;99480.13;2780934;84;21118;-90
2022/06/20 10:11:08;;;;;;;17.62;15.08;;;;;;;21.55;82.23;99483.70;2787318;83;21736;-95
2022/06/20 10:15:45;;;;;;;18.50;13.65;;;;;;;21.24;83.23;99496.17;2790499;81;21567;-91
2022/06/20 10:25:51;;;;;;;20.45;13.05;;;;;;;20.93;85.06;99450.44;2771830;81;21827;-93
2022/06/20 10:30:19;;;;;;;18.17;14.50;;;;;;;20.88;85.42;99447.56;2859773;81;21104;-88
2022/06/20 10:35:06;;;;;;;17.77;15.25;;;;;;;20.88;84.98;99452.97;2836870;81;21117;-92
2022/06/20 10:39:40;;;;;;;22.75;14.05;;;;;;;20.83;85.69;99440.08;2874647;81;21046;-90
2022/06/20 10:44:33;;;;;;;;;;;;;;;;;;;;;
2022/06/20 10:49:36;;;;;;;14.33;11.15;;;;;;;20.78;85.88;99482.27;2788355;83;22322;-91
2022/06/20 10:54:04;;;;;;;16.10;11.70;;;;;;;20.87;85.94;99501.31;2781792;83;21034;-88
2022/06/20 10:58:52;;;;;;;20.57;12.18;;;;;;;20.97;85.60;99506.27;2805153;82;21101;-93
2022/06/20 11:03:26;;;;;;;19.40;14.03;;;;;;;21.11;85.07;99503.80;2779927;84;21026;-90
2022/06/20 11:08:17;;;;;;;16.75;14.05;;;;;;;21.31;85.08;99502.88;2788967;83;21853;-93
2022/06/20 11:12:41;;;;;;;16.27;12.50;;;;;;;21.56;83.93;99504.84;2849770;82;21070;-88
2022/06/20 11:17:15;;;;;;;17.40;12.45;;;;;;;21.73;82.42;99524.11;2835463;82;21070;-94
2022/06/20 11:21:49;;;;;;;;;;;;;;;21.85;82.00;99521.53;2851196;82;21069;-93
2022/06/20 11:26:14;;;;;;;13.85;12.40;;;;;;;21.99;81.35;99538.50;2801077;82;20646;-92
2022/06/20 11:30:49;;;;;;;15.45;11.18;;;;;;;22.11;80.83;99537.30;2824433;82;21024;-92
2022/06/20 11:35:28;;;;;;;13.65;11.35;;;;;;;22.17;80.28;99535.56;2797433;82;21110;-93
2022/06/20 11:40:17;;;;;;;14.28;12.68;;;;;;;22.26;80.30;99547.80;2819600;81;21085;-92
2022/06/20 11:45:10;;;;;;;14.83;11.63;;;;;;;22.33;79.84;99503.86;2747339;84;21119;-92
2022/06/20 11:50:01;;;;;;;14.07;11.65;;;;;;;22.50;79.87;99474.36;2777126;83;21027;-93
2022/06/20 11:55:06;;;;;;;18.25;13.38;;;;;;;22.68;79.13;99490.30;2669373;87;21110;-92
2022/06/20 11:59:30;;;;;;;15.53;11.08;;;;;;;22.85;78.19;99514.94;2681219;86;21159;-90
2022/06/20 12:04:09;;;;;;;23.25;12.98;;;;;;;22.94;78.11;99484.29;2693598;86;21023;-91
2022/06/20 12:09:07;;;;;;;;;;;;;;;;;;;;;
2022/06/20 12:14:04;;;;;;;13.90;11.40;;;;;;;22.99;77.85;99487.66;2681899;86;21073;-92
2022/06/20 12:27:48;;;;;;;15.08;11.22;;;;;;;22.67;79.00;99527.44;2672751;87;21121;-59
2022/06/20 12:32:14;;;;;;;11.12;9.83;;;;;;;22.65;79.21;99536.31;2684729;88;21903;-60
2022/06/20 12:37:04;;;;;;;12.80;9.85;;;;;;;22.60;79.16;99549.72;2663207;87;21079;-58
2022/06/20 12:41:15;;;;;;;13.60;10.60;;;;;;;22.36;79.29;99554.06;2666230;88;21285;-58
2022/06/20 12:45:35;;;;;;;21.90;12.15;;;;;;;22.11;80.32;99557.61;2659094;89;21033;-59
2022/06/20 12:50:01;;;;;;;11.48;10.28;;;;;;;21.78;82.47;99566.23;2734036;86;21077;-59
2022/06/20 12:54:41;;;;;;;10.18;9.15;;;;;;;21.65;82.94;99555.50;2772508;85;21067;-68
2022/06/20 13:10:11;;;;;;;13.25;8.75;;;;;;;21.75;82.19;99549.62;2748439;86;21031;-65
2022/06/20 13:14:49;;;;;;;19.40;10.32;;;;;;;21.81;82.12;99537.91;2754609;85;21014;-59
2022/06/20 13:19:01;;;;;;;13.93;10.15;;;;;;;21.85;82.43;99533.71;2746014;85;21430;-59
2022/06/20 13:23:24;;;;;;;17.87;11.50;;;;;;;21.88;82.12;99528.39;2741981;85;21092;-60
2022/06/20 13:27:58;;;;;;;15.00;11.50;;;;;;;21.86;82.28;99527.79;2704825;86;21038;-61
2022/06/20 13:32:34;;;;;;;16.33;10.77;;;;;;;21.81;82.19;99548.23;2602623;91;21011;-59
2022/06/20 13:36:56;;;;;;;14.95;11.03;;;;;;;21.81;82.25;99562.27;2574396;91;21106;-60
2022/06/20 13:41:21;;;;;;;12.58;9.53;;;;;;;21.78;82.27;99557.30;2607538;90;21042;-61
2022/06/20 13:46:26;;;;;;;13.30;10.82;;;;;;;21.99;82.91;99476.77;2628609;89;21103;-61
2022/06/20 13:50:46;;;;;;;14.10;10.28;;;;;;;22.53;80.59;99489.31;2598978;89;21062;-59
2022/06/20 13:55:08;;;;;;;11.68;9.28;;;;;;;22.47;79.92;99526.80;2622433;90;21222;-60
2022/06/20 13:59:27;;;;;;;13.00;9.63;;;;;;;22.26;80.41;99530.19;2653537;89;21339;-63
2022/06/20 14:03:47;;;;;;;11.83;10.60;;;;;;;21.96;82.11;99534.38;2617865;89;21061;-58
2022/06/20 14:07:53;;;;;;;10.30;9.20;;;;;;;21.77;83.86;99540.22;2658402;86;21620;-59
2022/06/20 14:12:05;;;;;;;10.90;9.80;;;;;;;21.53;84.93;99543.16;2760369;86;20987;-62
2022/06/20 14:16:21;;;;;;;9.80;8.75;;;;;;;21.30;86.14;99558.55;2734853;86;21379;-62
2022/06/20 14:20:27;;;;;;;9.75;7.75;;;;;;;21.05;86.60;99566.03;2734931;84;21098;-60
2022/06/20 14:24:38;;;;;;;9.25;8.30;;;;;;;20.77;86.77;99556.27;2767277;84;21070;-60
2022/06/20 14:28:51;;;;;;;9.00;7.78;;;;;;;20.69;87.09;99567.63;2753529;85;21325;-63
2022/06/20 14:33:16;;;;;;;9.70;7.50;;;;;;;20.58;87.91;99574.19;2761426;84;21064;-65
2022/06/20 14:37:20;;;;;;;7.83;7.08;;;;;;;20.57;88.16;99572.00;2776373;84;21010;-59
2022/06/20 14:41:56;;;;;;;10.25;7.50;;;;;;;20.47;88.15;99572.95;2746302;86;21034;-59
2022/06/20 14:46:20;;;;;;;6.80;6.20;;;;;;;20.28;87.82;99562.45;2727005;86;21110;-59
2022/06/20 14:50:36;;;;;;;6.60;5.53;;;;;;;20.03;86.34;99604.91;2736408;86;21069;-60
2022/06/20 14:55:04;;;;;;;7.62;5.83;;;;;;;19.78;87.38;99614.88;2621871;90;21050;-60
2022/06/20 14:59:30;;;;;;;5.85;5.33;;;;;;;19.79;87.99;99617.36;2518780;93;21128;-61
2022/06/20 15:08:10;;;;;;;5.08;3.72;;;;;;;19.51;88.50;99622.36;2388822;99;21017;-61
2022/06/20 15:12:42;;;;;;;3.50;2.77;;;;;;;19.24;89.41;99632.18;2408930;96;21104;-60
2022/06/20 15:16:51;;;;;;;3.33;2.55;;;;;;;19.02;88.00;99609.35;2443129;97;21164;-60
2022/06/20 15:25:29;;;;;;;1.90;1.30;;;;;;;18.52;89.43;99629.58;2551153;91;21139;-91
2022/06/20 15:30:05;;;;;;;2.12;1.15;;;;;;;18.42;88.81;99650.10;2554011;91;21104;-90
2022/06/20 15:34:19;;;;;;;;;;;;;;;18.11;89.55;99666.03;2587869;90;21071;-90
2022/06/20 15:38:42;;;;;;;2.80;1.50;;;;;;;17.74;90.30;99682.16;2582338;87;20452;-90
2022/06/20 15:42:59;;;;;;;1.52;1.42;;;;;;;17.56;92.25;99683.38;2718803;84;21626;-89
2022/06/20 15:47:34;;;;;;;1.17;1.07;;;;;;;17.32;94.49;99706.51;2642400;87;21070;-86
2022/06/20 15:51:41;;;;;;;8.75;1.62;;;;;;;17.18;94.92;99722.42;2794241;84;21384;-85
2022/06/20 15:56:03;;;;;;;2.27;0.80;;;;;;;17.08;93.15;99732.58;2760120;84;21013;-86
2022/06/20 16:00:21;;;;;;;3.10;1.07;;;;;;;17.04;93.19;99733.48;2790820;84;21640;-88
2022/06/20 16:04:50;;;;;;;1.62;0.93;;;;;;;16.98;92.37;99742.21;2718224;84;21054;-86
2022/06/20 16:09:28;;;;;;;1.00;0.90;;;;;;;17.01;91.91;99757.17;2728968;84;21438;-89
2022/06/20 16:13:33;;;;;;;2.67;1.10;;;;;;;16.91;89.70;99752.02;2756754;84;21029;-87
2022/06/20 16:17:43;;;;;;;1.32;0.90;;;;;;;16.80;89.50;99758.16;2757429;85;21033;-89
2022/06/20 16:21:48;;;;;;;1.42;0.60;;;;;;;16.77;89.67;99768.41;2761911;84;21655;-87
2022/06/20 16:26:19;;;;;;;1.90;1.17;;;;;;;16.77;89.24;99769.76;2725844;85;21135;-85
2022/06/20 16:30:25;;;;;;;0.90;0.70;;;;;;;16.84;88.70;99762.64;2749674;85;21053;-87
2022/06/20 16:34:50;;;;;;;2.05;0.53;;;;;;;16.92;87.68;99776.03;2721727;85;21073;-87
2022/06/20 16:39:03;;;;;;;1.52;0.90;;;;;;;17.07;87.74;99754.60;2689087;86;21067;-87
2022/06/20 16:43:21;;;;;;;0.60;0.30;;;;;;;17.31;86.71;99723.66;2743812;85;21064;-85
2022/06/20 16:47:47;;;;;;;0.90;0.57;;;;;;;17.64;86.13;99720.09;2716144;85;21363;-86
2022/06/20 16:52:09;;;;;;;;;;;;;;;17.81;82.87;99720.72;2733726;85;21033;-87
2022/06/20 16:56:15;;;;;;;0.78;0.57;;;;;;;18.00;82.94;99696.94;2715882;86;20598;-87
2022/06/20 17:00:25;;;;;;;;;;;;;;;18.20;82.22;99703.09;2742023;84;21099;-88
2022/06/20 17:04:49;;;;;;;21.57;3.12;;;;;;;18.36;81.44;99702.01;2751592;85;20134;-85
2022/06/20 17:09:01;;;;;;;0.93;0.45;;;;;;;18.49;81.14;99701.33;2744986;84;21063;-86
2022/06/20 17:13:36;;;;;;;0.30;0.30;;;;;;;18.60;79.64;99699.98;2767051;84;21108;-88
2022/06/20 17:17:49;;;;;;;2.45;0.75;;;;;;;18.59;79.26;99689.70;2781468;84;21045;-92
2022/06/20 17:22:12;;;;;;;1.30;1.20;;;;;;;18.43;78.86;99715.54;2751215;84;21061;-89
2022/06/20 17:26:43;;;;;;;1.42;0.93;;;;;;;18.30;80.85;99725.16;2752472;84;21013;-95
2022/06/20 17:31:08;;;;;;;30.90;5.30;;;;;;;17.90;83.43;99766.37;2760727;82;21362;-87
2022/06/20 17:35:36;;;;;;;2.70;1.05;;;;;;;17.67;83.78;99788.30;2799395;84;21024;-86
2022/06/20 17:40:04;;;;;;;0.80;0.78;;;;;;;17.48;84.80;99772.70;2771955;84;21068;-87
2022/06/20 17:44:16;;;;;;;1.95;1.22;;;;;;;17.58;85.81;99760.33;2715662;86;21096;-87
2022/06/20 17:48:51;;;;;;;1.25;0.68;;;;;;;17.70;84.06;99770.96;2747130;85;21078;-87
2022/06/20 17:53:04;;;;;;;0.78;0.57;;;;;;;17.69;83.01;99774.15;2744238;85;21032;-87
2022/06/20 17:57:11;;;;;;;6.95;1.60;;;;;;;17.72;83.42;99782.86;2758255;85;20998;-86
2022/06/20 18:01:17;;;;;;;1.05;0.60;;;;;;;17.67;83.38;99782.06;2708458;86;21028;-87
2022/06/20 18:05:41;;;;;;;10.53;2.62;;;;;;;17.51;83.48;99794.69;2710941;85;21028;-87
2022/06/20 18:10:00;;;;;;;2.67;0.80;;;;;;;17.42;83.06;99776.95;2733643;85;21010;-87
2022/06/20 18:14:09;;;;;;;2.00;1.60;;;;;;;17.36;83.84;99781.72;2701322;86;21107;-85
2022/06/20 18:18:37;;;;;;;2.83;0.95;;;;;;;17.18;84.54;99782.89;2725993;85;21077;-87
2022/06/20 18:22:44;;;;;;;1.17;0.93;;;;;;;17.05;85.15;99767.88;2643188;88;21127;-85
2022/06/20 18:26:54;;;;;;;1.65;0.93;;;;;;;17.11;84.86;99778.74;2608503;89;21050;-87
2022/06/20 18:30:59;;;;;;;3.17;2.05;;;;;;;17.03;84.33;99773.95;2628951;89;21690;-88
2022/06/20 18:35:05;;;;;;;1.67;1.35;;;;;;;16.99;84.74;99778.34;2601700;90;21160;-85
2022/06/20 18:39:21;;;;;;;1.35;1.25;;;;;;;16.95;85.26;99791.78;2622456;89;21084;-87
2022/06/20 18:43:39;;;;;;;1.10;0.90;;;;;;;16.97;85.50;99783.52;2646969;88;21034;-93
2022/06/20 18:48:06;;;;;;;2.20;1.00;;;;;;;16.93;86.09;99801.88;2632771;89;21125;-91
2022/06/20 18:52:13;;;;;;;;;;;;;;;16.82;86.34;99791.53;2617636;89;21071;-88
2022/06/20 18:57:04;;;;;;;1.32;1.22;;;;;;;16.79;86.37;99777.95;2577988;89;20118;-90
2022/06/20 19:01:47;;;;;;;1.27;1.17;;;;;;;16.84;86.25;99768.87;2744859;84;21082;-90
2022/06/20 19:06:16;;;;;;;1.32;1.20;;;;;;;16.80;86.37;99775.62;2724993;85;21062;-90
2022/06/20 19:10:57;;;;;;;1.20;1.10;;;;;;;16.80;85.88;99770.73;2705344;86;21703;-90
2022/06/20 19:15:09;;;;;;;1.80;0.90;;;;;;;16.76;85.86;99774.80;2772819;83;21043;-91
2022/06/20 19:20:06;;;;;;;1.75;1.30;;;;;;;16.82;85.91;99776.77;2777023;84;20968;-90
2022/06/20 19:24:37;;;;;;;2.20;1.27;;;;;;;16.78;86.20;99778.14;2786431;83;20986;-90
2022/06/20 19:28:42;;;;;;;19.00;4.17;;;;;;;16.81;86.28;99769.72;2761713;83;21093;-91
2022/06/20 19:32:49;;;;;;;1.40;1.30;;;;;;;16.82;86.51;99778.95;2793355;83;21351;-91
2022/06/20 19:36:58;;;;;;;4.50;1.82;;;;;;;16.83;86.62;99783.80;2777812;83;21054;-89
2022/06/20 19:41:05;;;;;;;1.52;1.42;;;;;;;16.96;86.46;99792.11;2816285;83;21032;-90
2022/06/20 19:45:25;;;;;;;1.42;1.32;;;;;;;17.10;86.05;99793.72;2806631;83;21073;-89
2022/06/20 19:49:46;;;;;;;3.40;2.22;;;;;;;17.11;85.66;99802.11;2786924;83;21664;-91
2022/06/20 19:53:52;;;;;;;5.62;2.22;;;;;;;17.15;85.51;99803.41;2737905;83;21018;-91
2022/06/20 19:58:11;;;;;;;3.08;2.67;;;;;;;17.19;85.45;99811.43;2811138;84;21043;-92
2022/06/20 20:02:17;;;;;;;3.25;2.17;;;;;;;17.23;85.42;99816.77;2836882;82;21057;-90
2022/06/20 20:06:19;;;;;;;;;;;;;;;17.24;85.31;99813.59;2827176;82;21006;-90
2022/06/20 20:10:28;;;;;;;2.45;2.25;;;;;;;17.21;85.42;99821.48;2789059;84;20108;-90
2022/06/20 20:14:29;;;;;;;4.03;2.02;;;;;;;17.18;85.37;99825.89;2792100;84;21109;-91
2022/06/20 20:18:45;;;;;;;3.33;3.02;;;;;;;17.20;85.51;99821.69;2766179;84;21062;-91
2022/06/20 20:22:48;;;;;;;2.62;2.00;;;;;;;17.20;85.47;99825.20;2783645;84;21018;-87
2022/06/20 20:27:12;;;;;;;3.85;2.83;;;;;;;17.18;85.44;99830.41;2785944;83;21037;-92
2022/06/20 20:31:19;;;;;;;4.17;3.75;;;;;;;17.14;85.74;99832.64;2762131;84;21074;-90
2022/06/20 20:36:09;;;;;;;3.33;3.00;;;;;;;17.05;86.26;99824.30;2738869;84;21074;-91
2022/06/20 20:40:44;;;;;;;5.67;4.25;;;;;;;16.96;86.82;99833.75;2796090;83;21492;-91
2022/06/20 20:45:14;;;;;;;68.55;15.10;;;;;;;16.80;87.14;99827.14;2745061;84;21086;-91
2022/06/20 20:49:21;;;;;;;7.78;5.25;;;;;;;16.67;87.03;99827.73;2733870;85;21057;-92
2022/06/20 20:53:36;;;;;;;7.28;5.30;;;;;;;16.49;87.17;99824.80;2818861;84;21558;-87
2022/06/20 20:57:42;;;;;;;6.12;4.60;;;;;;;16.34;87.62;99823.38;2787134;84;21012;-86
2022/06/20 21:01:44;;;;;;;;;;;;;;;16.21;87.86;99821.26;2778937;85;20979;-87
2022/06/20 21:06:03;;;;;;;6.92;4.70;;;;;;;16.11;88.08;99823.30;2773155;85;20142;-91
2022/06/20 21:10:09;;;;;;;5.58;4.65;;;;;;;16.04;87.78;99823.67;2765703;85;21030;-93